Aeroporto :
LOGIN :

Iscrizione | Disclaimer

   EN    FR    IT 

 










Sommario :    VFR   VFR Marginale   IFR   IFR Intensivo   IFR Molto Intensivo
Visibilità : 
Base nubi : 
>= 8 km
>= 3000ft
5 / 8 km
1000 / 3000 ft
1500m / 5 km
500 / 1000 ft
800 / 1500m
200 / 500 ft
< 800m
< 200 ft
Simboli :   Temporali  Nebbia  Neve Forte  Precipitazioni Forti  Vento > 20 kt
SIGMETs :   Varie  Temporali  Ghiacco  Turbolenza  Onda orograficha  Ceneri Vulcaniche






- Altitudine del aeroporto : 194 ft
- Codice IATA : IEG


EPZG - Zielona Gora Babimost

ULTIMO METAR :
  • 142100Z 08009KT 040V110 4200 BR OVC010 04/02 Q1014

METARs OBSOLETI :
  • 142030Z 09009KT 3500 BR OVC010 04/02 Q1014
  • 142000Z 08011KT 3300 BR SCT008 OVC010 04/02 Q1014
  • 141930Z 08010KT 3400 BR OVC008 03/02 Q1014
  • 141900Z 08011KT 050V110 3400 BR OVC008 03/02 Q1014

TAF TAF EPZG
Valido dal 14 a 21 ore il 15 a 06 ore UTC


142030Z 1421/1506 09010KT 4000 BR OVC012
BECMG 1421/1423 BKN006
TEMPO 1421/1506 1200 BR BKN003
PROB30 1423/1505 0500 FG OVC001



MetMap, La meteo Aeronautica in un colpo d'occhio ! - Copyright ORBIFLY Dicembre 2007 - Disclaimer

ORBIFLY MET'MAP TEAM :

Programmazione e sviluppo : Alexandra Zaïnal
Concezione e sviluppo : Baudouin d'Aumeries
Co-Programmazione e sviluppo : Marc-Olivier Méhu
Supporto tecnico e logistico : Manuel Goepfert
Aiuto per la traduzione : Arnaldo La Scala

Contatto : metmap@orbifly.com




FONTI E CREDITI :

   NOAA